KFWA/FWA METAR and TAF weather

Enter ICAO airport designator
Station Type Date Time Source
KFWA METAR 2022/08/16 18:54 UTC NOAA

KFWA 161854Z 04011G18KT 10SM SCT060 BKN250 27/13 A3006 RMK AO2 SLP176 T02720133


Station Type Date Time Source
KFWA Decoded METAR 2022/08/16 18:54 UTC NOAA

FORT WAYNE INTERNATIONAL, IN, United States (KFWA) 41-00N 85-12W 248M
Aug 16, 2022 - 02:54 PM EDT / 2022.08.16 1854 UTC
Wind: from the NE (040 degrees) at 13 MPH (11 KT) gusting to 21 MPH (18 KT):0
Visibility: 10 mile(s):0
Sky conditions: mostly cloudy
Temperature: 81.0 F (27.2 C)
Dew Point: 55.9 F (13.3 C)
Relative Humidity: 42%
Pressure (altimeter): 30.06 in. Hg (1017 hPa)
ob: KFWA 161854Z 04011G18KT 10SM SCT060 BKN250 27/13 A3006 RMK AO2 SLP176 T02720133
cycle: 19

Station Type Date Time Source
KFWA TAF 2022/08/16 18:36 UTC NOAA

TAF KFWA 161732Z 1618/1718 05010G15KT P6SM FEW250
FM162200 04007KT P6SM FEW250

Example: see airport list